sensor_id;sensor_type;location;lat;lon;timestamp;P1;durP1;ratioP1;P2;durP2;ratioP2
64789;SDS011;51223;51.816;5.862;2023-01-28T00:02:16;5.40;;;3.15;;
64789;SDS011;51223;51.816;5.862;2023-01-28T00:04:42;2.72;;;2.22;;
64789;SDS011;51223;51.816;5.862;2023-01-28T00:07:08;0.95;;;0.85;;
64789;SDS011;51223;51.816;5.862;2023-01-28T00:09:34;2.78;;;1.63;;
64789;SDS011;51223;51.816;5.862;2023-01-28T00:11:59;3.30;;;2.35;;
64789;SDS011;51223;51.816;5.862;2023-01-28T00:14:25;4.05;;;3.05;;
64789;SDS011;51223;51.816;5.862;2023-01-28T00:16:50;4.43;;;2.67;;
64789;SDS011;51223;51.816;5.862;2023-01-28T00:19:16;3.63;;;2.65;;
64789;SDS011;51223;51.816;5.862;2023-01-28T00:21:41;4.22;;;2.97;;
64789;SDS011;51223;51.816;5.862;2023-01-28T00:24:07;4.63;;;2.83;;
64789;SDS011;51223;51.816;5.862;2023-01-28T00:26:34;3.65;;;2.60;;
64789;SDS011;51223;51.816;5.862;2023-01-28T00:28:59;4.43;;;3.33;;
64789;SDS011;51223;51.816;5.862;2023-01-28T00:31:25;4.13;;;2.47;;
64789;SDS011;51223;51.816;5.862;2023-01-28T00:33:55;4.63;;;2.75;;
64789;SDS011;51223;51.816;5.862;2023-01-28T00:36:22;3.58;;;2.13;;
64789;SDS011;51223;51.816;5.862;2023-01-28T00:38:49;2.38;;;1.80;;
64789;SDS011;51223;51.816;5.862;2023-01-28T00:41:15;2.95;;;2.25;;
64789;SDS011;51223;51.816;5.862;2023-01-28T00:43:41;4.20;;;3.00;;
64789;SDS011;51223;51.816;5.862;2023-01-28T00:46:08;2.00;;;1.55;;
64789;SDS011;51223;51.816;5.862;2023-01-28T00:48:34;2.20;;;1.83;;
64789;SDS011;51223;51.816;5.862;2023-01-28T00:51:00;3.05;;;1.92;;
64789;SDS011;51223;51.816;5.862;2023-01-28T00:53:26;2.25;;;1.45;;
64789;SDS011;51223;51.816;5.862;2023-01-28T00:55:52;2.28;;;1.70;;
64789;SDS011;51223;51.816;5.862;2023-01-28T00:58:18;4.15;;;2.13;;
64789;SDS011;51223;51.816;5.862;2023-01-28T01:00:44;1.33;;;0.88;;
64789;SDS011;51223;51.816;5.862;2023-01-28T01:03:10;2.30;;;1.65;;
64789;SDS011;51223;51.816;5.862;2023-01-28T01:05:36;1.85;;;1.65;;
64789;SDS011;51223;51.816;5.862;2023-01-28T01:08:01;1.35;;;1.25;;
64789;SDS011;51223;51.816;5.862;2023-01-28T01:10:27;5.38;;;2.58;;
64789;SDS011;51223;51.816;5.862;2023-01-28T01:12:53;2.35;;;1.63;;
64789;SDS011;51223;51.816;5.862;2023-01-28T01:15:18;2.33;;;2.03;;
64789;SDS011;51223;51.816;5.862;2023-01-28T01:17:45;1.92;;;1.48;;
64789;SDS011;51223;51.816;5.862;2023-01-28T01:20:12;2.28;;;1.75;;
64789;SDS011;51223;51.816;5.862;2023-01-28T01:22:39;1.92;;;1.52;;
64789;SDS011;51223;51.816;5.862;2023-01-28T01:25:05;1.95;;;1.60;;
64789;SDS011;51223;51.816;5.862;2023-01-28T01:27:31;2.05;;;1.58;;
64789;SDS011;51223;51.816;5.862;2023-01-28T01:29:57;1.75;;;1.52;;
64789;SDS011;51223;51.816;5.862;2023-01-28T01:32:23;2.22;;;1.83;;
64789;SDS011;51223;51.816;5.862;2023-01-28T01:34:49;2.58;;;1.90;;
64789;SDS011;51223;51.816;5.862;2023-01-28T01:37:15;2.40;;;2.08;;
64789;SDS011;51223;51.816;5.862;2023-01-28T01:39:40;3.33;;;2.25;;
64789;SDS011;51223;51.816;5.862;2023-01-28T01:42:09;1.92;;;1.38;;
64789;SDS011;51223;51.816;5.862;2023-01-28T01:47:20;1.67;;;1.33;;
64789;SDS011;51223;51.816;5.862;2023-01-28T01:49:50;2.50;;;1.95;;
64789;SDS011;51223;51.816;5.862;2023-01-28T01:52:17;2.85;;;1.88;;
64789;SDS011;51223;51.816;5.862;2023-01-28T01:54:45;3.53;;;2.35;;
64789;SDS011;51223;51.816;5.862;2023-01-28T01:57:13;1.92;;;1.60;;
64789;SDS011;51223;51.816;5.862;2023-01-28T01:59:39;3.42;;;2.22;;
64789;SDS011;51223;51.816;5.862;2023-01-28T02:02:06;3.60;;;2.33;;
64789;SDS011;51223;51.816;5.862;2023-01-28T02:04:34;2.90;;;2.35;;
64789;SDS011;51223;51.816;5.862;2023-01-28T02:07:02;2.42;;;1.60;;
64789;SDS011;51223;51.816;5.862;2023-01-28T02:09:29;1.00;;;0.95;;
64789;SDS011;51223;51.816;5.862;2023-01-28T02:12:05;2.78;;;1.90;;
64789;SDS011;51223;51.816;5.862;2023-01-28T02:14:32;4.10;;;2.22;;
64789;SDS011;51223;51.816;5.862;2023-01-28T02:16:59;4.68;;;2.97;;
64789;SDS011;51223;51.816;5.862;2023-01-28T02:19:26;3.47;;;2.33;;
64789;SDS011;51223;51.816;5.862;2023-01-28T02:24:32;1.77;;;1.67;;
64789;SDS011;51223;51.816;5.862;2023-01-28T02:29:43;2.35;;;1.80;;
64789;SDS011;51223;51.816;5.862;2023-01-28T02:34:42;2.45;;;1.75;;
64789;SDS011;51223;51.816;5.862;2023-01-28T02:40:11;2.60;;;1.70;;
64789;SDS011;51223;51.816;5.862;2023-01-28T02:42:39;3.83;;;2.42;;
64789;SDS011;51223;51.816;5.862;2023-01-28T02:45:15;2.80;;;1.92;;
64789;SDS011;51223;51.816;5.862;2023-01-28T02:47:41;2.30;;;1.63;;
64789;SDS011;51223;51.816;5.862;2023-01-28T02:50:22;2.85;;;1.70;;
64789;SDS011;51223;51.816;5.862;2023-01-28T02:53:06;1.02;;;0.95;;
64789;SDS011;51223;51.816;5.862;2023-01-28T02:56:01;3.20;;;2.25;;
64789;SDS011;51223;51.816;5.862;2023-01-28T02:59:19;2.10;;;1.67;;
64789;SDS011;51223;51.816;5.862;2023-01-28T03:01:35;1.58;;;1.25;;
64789;SDS011;51223;51.816;5.862;2023-01-28T03:04:03;1.98;;;1.77;;
64789;SDS011;51223;51.816;5.862;2023-01-28T03:06:44;4.03;;;1.85;;
64789;SDS011;51223;51.816;5.862;2023-01-28T03:09:13;3.67;;;1.60;;
64789;SDS011;51223;51.816;5.862;2023-01-28T03:12:23;3.20;;;2.00;;
64789;SDS011;51223;51.816;5.862;2023-01-28T03:15:02;1.42;;;1.20;;
64789;SDS011;51223;51.816;5.862;2023-01-28T03:23:39;2.70;;;1.88;;
64789;SDS011;51223;51.816;5.862;2023-01-28T03:26:23;1.35;;;1.25;;
64789;SDS011;51223;51.816;5.862;2023-01-28T03:29:11;1.15;;;1.00;;
64789;SDS011;51223;51.816;5.862;2023-01-28T03:31:57;1.73;;;1.42;;
64789;SDS011;51223;51.816;5.862;2023-01-28T03:34:42;2.35;;;1.48;;
64789;SDS011;51223;51.816;5.862;2023-01-28T03:37:27;2.13;;;1.58;;
64789;SDS011;51223;51.816;5.862;2023-01-28T03:39:54;1.52;;;1.30;;
64789;SDS011;51223;51.816;5.862;2023-01-28T03:42:25;3.17;;;2.15;;
64789;SDS011;51223;51.816;5.862;2023-01-28T03:44:50;1.67;;;1.50;;
64789;SDS011;51223;51.816;5.862;2023-01-28T03:47:20;4.47;;;2.42;;
64789;SDS011;51223;51.816;5.862;2023-01-28T03:49:47;3.30;;;2.05;;
64789;SDS011;51223;51.816;5.862;2023-01-28T03:52:14;1.95;;;1.45;;
64789;SDS011;51223;51.816;5.862;2023-01-28T03:54:39;2.70;;;1.40;;
64789;SDS011;51223;51.816;5.862;2023-01-28T03:57:05;1.90;;;1.70;;
64789;SDS011;51223;51.816;5.862;2023-01-28T03:59:31;4.60;;;2.03;;
64789;SDS011;51223;51.816;5.862;2023-01-28T04:01:57;2.00;;;1.45;;
64789;SDS011;51223;51.816;5.862;2023-01-28T04:04:22;3.03;;;1.85;;
64789;SDS011;51223;51.816;5.862;2023-01-28T04:06:49;3.08;;;2.13;;
64789;SDS011;51223;51.816;5.862;2023-01-28T04:09:15;1.20;;;0.63;;
64789;SDS011;51223;51.816;5.862;2023-01-28T04:11:41;4.20;;;2.55;;
64789;SDS011;51223;51.816;5.862;2023-01-28T04:14:06;2.03;;;1.85;;
64789;SDS011;51223;51.816;5.862;2023-01-28T04:16:32;1.58;;;1.40;;
64789;SDS011;51223;51.816;5.862;2023-01-28T04:18:57;4.25;;;2.13;;
64789;SDS011;51223;51.816;5.862;2023-01-28T04:21:23;3.13;;;2.28;;
64789;SDS011;51223;51.816;5.862;2023-01-28T04:23:49;1.83;;;1.65;;
64789;SDS011;51223;51.816;5.862;2023-01-28T04:26:14;2.95;;;2.28;;
64789;SDS011;51223;51.816;5.862;2023-01-28T04:28:40;4.03;;;2.42;;
64789;SDS011;51223;51.816;5.862;2023-01-28T04:31:05;2.75;;;2.03;;
64789;SDS011;51223;51.816;5.862;2023-01-28T04:33:31;1.30;;;1.20;;
64789;SDS011;51223;51.816;5.862;2023-01-28T04:35:57;1.15;;;1.05;;
64789;SDS011;51223;51.816;5.862;2023-01-28T04:38:22;2.00;;;1.58;;
64789;SDS011;51223;51.816;5.862;2023-01-28T04:40:48;3.08;;;2.13;;
64789;SDS011;51223;51.816;5.862;2023-01-28T04:43:14;2.28;;;2.08;;
64789;SDS011;51223;51.816;5.862;2023-01-28T04:45:39;3.83;;;2.50;;
64789;SDS011;51223;51.816;5.862;2023-01-28T04:48:05;2.92;;;1.92;;
64789;SDS011;51223;51.816;5.862;2023-01-28T04:50:31;3.65;;;2.38;;
64789;SDS011;51223;51.816;5.862;2023-01-28T04:52:56;1.33;;;0.88;;
64789;SDS011;51223;51.816;5.862;2023-01-28T04:55:22;2.47;;;1.77;;
64789;SDS011;51223;51.816;5.862;2023-01-28T04:57:47;1.63;;;1.38;;
64789;SDS011;51223;51.816;5.862;2023-01-28T05:00:13;1.77;;;1.63;;
64789;SDS011;51223;51.816;5.862;2023-01-28T05:02:38;1.70;;;1.42;;
64789;SDS011;51223;51.816;5.862;2023-01-28T05:05:04;1.48;;;1.25;;
64789;SDS011;51223;51.816;5.862;2023-01-28T05:07:33;1.98;;;1.75;;
64789;SDS011;51223;51.816;5.862;2023-01-28T05:09:59;3.05;;;2.17;;
64789;SDS011;51223;51.816;5.862;2023-01-28T05:12:24;1.38;;;1.27;;
64789;SDS011;51223;51.816;5.862;2023-01-28T05:14:50;0.40;;;0.30;;
64789;SDS011;51223;51.816;5.862;2023-01-28T05:17:15;1.75;;;1.35;;
64789;SDS011;51223;51.816;5.862;2023-01-28T05:19:41;2.95;;;2.22;;
64789;SDS011;51223;51.816;5.862;2023-01-28T05:22:08;1.70;;;1.25;;
64789;SDS011;51223;51.816;5.862;2023-01-28T05:24:33;2.30;;;1.80;;
64789;SDS011;51223;51.816;5.862;2023-01-28T05:26:59;1.65;;;1.33;;
64789;SDS011;51223;51.816;5.862;2023-01-28T05:29:24;1.25;;;0.80;;
64789;SDS011;51223;51.816;5.862;2023-01-28T05:31:50;3.13;;;2.05;;
64789;SDS011;51223;51.816;5.862;2023-01-28T05:34:15;4.20;;;2.20;;
64789;SDS011;51223;51.816;5.862;2023-01-28T05:36:41;1.45;;;1.13;;
64789;SDS011;51223;51.816;5.862;2023-01-28T05:39:07;1.77;;;1.67;;
64789;SDS011;51223;51.816;5.862;2023-01-28T05:41:32;2.58;;;1.88;;
64789;SDS011;51223;51.816;5.862;2023-01-28T05:43:59;0.60;;;0.60;;
64789;SDS011;51223;51.816;5.862;2023-01-28T05:46:24;1.83;;;1.40;;
64789;SDS011;51223;51.816;5.862;2023-01-28T05:48:50;0.82;;;0.80;;
64789;SDS011;51223;51.816;5.862;2023-01-28T05:51:16;3.70;;;2.50;;
64789;SDS011;51223;51.816;5.862;2023-01-28T05:53:42;3.13;;;2.42;;
64789;SDS011;51223;51.816;5.862;2023-01-28T05:56:07;2.22;;;1.65;;
64789;SDS011;51223;51.816;5.862;2023-01-28T05:58:33;1.85;;;1.20;;
64789;SDS011;51223;51.816;5.862;2023-01-28T06:00:59;3.30;;;2.47;;
64789;SDS011;51223;51.816;5.862;2023-01-28T06:03:24;2.88;;;2.25;;
64789;SDS011;51223;51.816;5.862;2023-01-28T06:05:50;2.30;;;1.70;;
64789;SDS011;51223;51.816;5.862;2023-01-28T06:08:15;1.65;;;1.42;;
64789;SDS011;51223;51.816;5.862;2023-01-28T06:10:41;2.63;;;2.13;;
64789;SDS011;51223;51.816;5.862;2023-01-28T06:13:06;1.50;;;1.27;;
64789;SDS011;51223;51.816;5.862;2023-01-28T06:15:32;3.03;;;2.08;;
64789;SDS011;51223;51.816;5.862;2023-01-28T06:17:57;2.92;;;2.30;;
64789;SDS011;51223;51.816;5.862;2023-01-28T06:20:23;2.50;;;1.77;;
64789;SDS011;51223;51.816;5.862;2023-01-28T06:22:49;2.42;;;1.77;;
64789;SDS011;51223;51.816;5.862;2023-01-28T06:25:15;2.92;;;2.00;;
64789;SDS011;51223;51.816;5.862;2023-01-28T06:27:41;4.40;;;3.00;;
64789;SDS011;51223;51.816;5.862;2023-01-28T06:30:06;1.90;;;1.23;;
64789;SDS011;51223;51.816;5.862;2023-01-28T06:32:32;1.83;;;1.30;;
64789;SDS011;51223;51.816;5.862;2023-01-28T06:34:58;2.45;;;1.52;;
64789;SDS011;51223;51.816;5.862;2023-01-28T06:37:23;3.28;;;2.47;;
64789;SDS011;51223;51.816;5.862;2023-01-28T06:39:49;2.72;;;2.22;;
64789;SDS011;51223;51.816;5.862;2023-01-28T06:42:14;3.95;;;2.75;;
64789;SDS011;51223;51.816;5.862;2023-01-28T06:44:40;2.70;;;1.88;;
64789;SDS011;51223;51.816;5.862;2023-01-28T06:47:06;2.65;;;2.00;;
64789;SDS011;51223;51.816;5.862;2023-01-28T06:49:31;5.90;;;3.20;;
64789;SDS011;51223;51.816;5.862;2023-01-28T06:51:57;1.40;;;1.30;;
64789;SDS011;51223;51.816;5.862;2023-01-28T06:54:22;2.20;;;1.90;;
64789;SDS011;51223;51.816;5.862;2023-01-28T06:56:48;1.63;;;1.25;;
64789;SDS011;51223;51.816;5.862;2023-01-28T06:59:13;1.92;;;1.73;;
64789;SDS011;51223;51.816;5.862;2023-01-28T07:01:39;1.73;;;1.48;;
64789;SDS011;51223;51.816;5.862;2023-01-28T07:04:07;2.55;;;1.65;;
64789;SDS011;51223;51.816;5.862;2023-01-28T07:06:33;0.90;;;0.90;;
64789;SDS011;51223;51.816;5.862;2023-01-28T07:08:58;3.13;;;1.83;;
64789;SDS011;51223;51.816;5.862;2023-01-28T07:11:24;2.03;;;1.70;;
64789;SDS011;51223;51.816;5.862;2023-01-28T07:13:49;1.83;;;1.73;;
64789;SDS011;51223;51.816;5.862;2023-01-28T07:16:15;0.98;;;0.73;;
64789;SDS011;51223;51.816;5.862;2023-01-28T07:18:41;4.65;;;2.88;;
64789;SDS011;51223;51.816;5.862;2023-01-28T07:21:07;1.75;;;1.25;;
64789;SDS011;51223;51.816;5.862;2023-01-28T07:23:32;2.05;;;1.55;;
64789;SDS011;51223;51.816;5.862;2023-01-28T07:26:01;2.08;;;1.88;;
64789;SDS011;51223;51.816;5.862;2023-01-28T07:28:27;2.05;;;1.15;;
64789;SDS011;51223;51.816;5.862;2023-01-28T07:30:52;1.38;;;1.02;;
64789;SDS011;51223;51.816;5.862;2023-01-28T07:33:18;3.72;;;2.53;;
64789;SDS011;51223;51.816;5.862;2023-01-28T07:35:44;2.17;;;1.83;;
64789;SDS011;51223;51.816;5.862;2023-01-28T07:38:10;12.75;;;3.20;;
64789;SDS011;51223;51.816;5.862;2023-01-28T07:40:36;2.30;;;2.08;;
64789;SDS011;51223;51.816;5.862;2023-01-28T07:43:01;1.73;;;1.52;;
64789;SDS011;51223;51.816;5.862;2023-01-28T07:45:27;2.13;;;1.50;;
64789;SDS011;51223;51.816;5.862;2023-01-28T07:50:20;2.17;;;1.65;;
64789;SDS011;51223;51.816;5.862;2023-01-28T07:52:45;2.40;;;1.75;;
64789;SDS011;51223;51.816;5.862;2023-01-28T07:55:11;2.90;;;2.17;;
64789;SDS011;51223;51.816;5.862;2023-01-28T07:57:56;1.92;;;1.38;;
64789;SDS011;51223;51.816;5.862;2023-01-28T08:00:23;3.55;;;2.28;;
64789;SDS011;51223;51.816;5.862;2023-01-28T08:02:49;4.50;;;2.22;;
64789;SDS011;51223;51.816;5.862;2023-01-28T08:05:16;3.10;;;2.03;;
64789;SDS011;51223;51.816;5.862;2023-01-28T08:07:42;1.60;;;1.48;;
64789;SDS011;51223;51.816;5.862;2023-01-28T08:10:07;7.72;;;2.67;;
64789;SDS011;51223;51.816;5.862;2023-01-28T08:12:33;5.38;;;3.38;;
64789;SDS011;51223;51.816;5.862;2023-01-28T08:15:02;4.97;;;3.22;;
64789;SDS011;51223;51.816;5.862;2023-01-28T08:17:29;5.00;;;3.03;;
64789;SDS011;51223;51.816;5.862;2023-01-28T08:19:55;3.30;;;2.63;;
64789;SDS011;51223;51.816;5.862;2023-01-28T08:22:24;5.60;;;2.55;;
64789;SDS011;51223;51.816;5.862;2023-01-28T08:24:49;5.75;;;3.40;;
64789;SDS011;51223;51.816;5.862;2023-01-28T08:27:15;2.78;;;2.10;;
64789;SDS011;51223;51.816;5.862;2023-01-28T08:29:40;6.22;;;3.80;;
64789;SDS011;51223;51.816;5.862;2023-01-28T08:32:08;3.42;;;1.88;;
64789;SDS011;51223;51.816;5.862;2023-01-28T08:34:33;9.23;;;3.35;;
64789;SDS011;51223;51.816;5.862;2023-01-28T08:36:59;2.42;;;1.88;;
64789;SDS011;51223;51.816;5.862;2023-01-28T08:39:24;3.80;;;2.45;;
64789;SDS011;51223;51.816;5.862;2023-01-28T08:41:50;3.72;;;2.78;;
64789;SDS011;51223;51.816;5.862;2023-01-28T08:44:16;4.80;;;3.28;;
64789;SDS011;51223;51.816;5.862;2023-01-28T08:46:41;3.45;;;2.80;;
64789;SDS011;51223;51.816;5.862;2023-01-28T08:49:07;3.40;;;2.83;;
64789;SDS011;51223;51.816;5.862;2023-01-28T08:51:32;2.55;;;2.08;;
64789;SDS011;51223;51.816;5.862;2023-01-28T08:53:58;4.43;;;2.97;;
64789;SDS011;51223;51.816;5.862;2023-01-28T08:56:23;9.48;;;3.03;;
64789;SDS011;51223;51.816;5.862;2023-01-28T08:58:49;3.80;;;2.70;;
64789;SDS011;51223;51.816;5.862;2023-01-28T09:01:14;4.25;;;3.22;;
64789;SDS011;51223;51.816;5.862;2023-01-28T09:03:40;3.67;;;2.90;;
64789;SDS011;51223;51.816;5.862;2023-01-28T09:06:05;5.43;;;3.53;;
64789;SDS011;51223;51.816;5.862;2023-01-28T09:08:31;4.93;;;2.97;;
64789;SDS011;51223;51.816;5.862;2023-01-28T09:10:57;2.75;;;2.50;;
64789;SDS011;51223;51.816;5.862;2023-01-28T09:13:23;4.63;;;3.17;;
64789;SDS011;51223;51.816;5.862;2023-01-28T09:15:49;3.95;;;2.47;;
64789;SDS011;51223;51.816;5.862;2023-01-28T09:18:18;3.83;;;2.53;;
64789;SDS011;51223;51.816;5.862;2023-01-28T09:20:44;4.07;;;3.10;;
64789;SDS011;51223;51.816;5.862;2023-01-28T09:23:09;2.30;;;1.80;;
64789;SDS011;51223;51.816;5.862;2023-01-28T09:25:35;5.30;;;3.53;;
64789;SDS011;51223;51.816;5.862;2023-01-28T09:28:01;5.15;;;2.78;;
64789;SDS011;51223;51.816;5.862;2023-01-28T09:30:27;4.95;;;3.38;;
64789;SDS011;51223;51.816;5.862;2023-01-28T09:32:52;6.50;;;4.38;;
64789;SDS011;51223;51.816;5.862;2023-01-28T09:35:18;6.00;;;4.45;;
64789;SDS011;51223;51.816;5.862;2023-01-28T09:37:44;5.93;;;3.78;;
64789;SDS011;51223;51.816;5.862;2023-01-28T09:40:12;5.68;;;3.38;;
64789;SDS011;51223;51.816;5.862;2023-01-28T09:45:08;5.90;;;4.20;;
64789;SDS011;51223;51.816;5.862;2023-01-28T09:47:49;6.28;;;3.80;;
64789;SDS011;51223;51.816;5.862;2023-01-28T09:50:22;6.03;;;3.90;;
64789;SDS011;51223;51.816;5.862;2023-01-28T09:52:48;6.07;;;3.95;;
64789;SDS011;51223;51.816;5.862;2023-01-28T09:55:32;5.57;;;4.20;;
64789;SDS011;51223;51.816;5.862;2023-01-28T09:57:58;3.95;;;2.72;;
64789;SDS011;51223;51.816;5.862;2023-01-28T10:03:31;6.93;;;4.00;;
64789;SDS011;51223;51.816;5.862;2023-01-28T10:11:12;1.70;;;1.60;;
64789;SDS011;51223;51.816;5.862;2023-01-28T10:14:16;3.50;;;2.72;;
64789;SDS011;51223;51.816;5.862;2023-01-28T10:16:36;4.13;;;2.75;;
64789;SDS011;51223;51.816;5.862;2023-01-28T10:19:45;4.35;;;3.05;;
64789;SDS011;51223;51.816;5.862;2023-01-28T10:21:56;5.28;;;3.42;;
64789;SDS011;51223;51.816;5.862;2023-01-28T10:24:33;4.07;;;2.80;;
64789;SDS011;51223;51.816;5.862;2023-01-28T10:27:17;5.82;;;3.47;;
64789;SDS011;51223;51.816;5.862;2023-01-28T10:29:43;3.28;;;2.15;;
64789;SDS011;51223;51.816;5.862;2023-01-28T10:34:46;3.45;;;2.60;;
64789;SDS011;51223;51.816;5.862;2023-01-28T10:37:12;2.60;;;1.70;;
64789;SDS011;51223;51.816;5.862;2023-01-28T10:39:38;6.22;;;3.78;;
64789;SDS011;51223;51.816;5.862;2023-01-28T10:42:19;5.30;;;2.92;;
64789;SDS011;51223;51.816;5.862;2023-01-28T10:44:47;4.95;;;3.53;;
64789;SDS011;51223;51.816;5.862;2023-01-28T10:47:14;6.35;;;3.20;;
64789;SDS011;51223;51.816;5.862;2023-01-28T10:49:43;2.67;;;2.20;;
64789;SDS011;51223;51.816;5.862;2023-01-28T10:52:11;4.93;;;3.08;;
64789;SDS011;51223;51.816;5.862;2023-01-28T10:54:37;1.35;;;1.25;;
64789;SDS011;51223;51.816;5.862;2023-01-28T10:57:03;7.25;;;4.38;;
64789;SDS011;51223;51.816;5.862;2023-01-28T10:59:30;5.55;;;2.80;;
64789;SDS011;51223;51.816;5.862;2023-01-28T11:01:58;4.32;;;2.72;;
64789;SDS011;51223;51.816;5.862;2023-01-28T11:04:34;5.55;;;3.00;;
64789;SDS011;51223;51.816;5.862;2023-01-28T11:07:01;4.47;;;2.95;;
64789;SDS011;51223;51.816;5.862;2023-01-28T11:11:56;9.98;;;3.42;;
64789;SDS011;51223;51.816;5.862;2023-01-28T11:14:22;6.10;;;3.35;;
64789;SDS011;51223;51.816;5.862;2023-01-28T11:16:49;3.25;;;2.38;;
64789;SDS011;51223;51.816;5.862;2023-01-28T11:19:16;5.00;;;3.10;;
64789;SDS011;51223;51.816;5.862;2023-01-28T11:21:46;4.70;;;3.08;;
64789;SDS011;51223;51.816;5.862;2023-01-28T11:24:14;2.63;;;1.75;;
64789;SDS011;51223;51.816;5.862;2023-01-28T11:26:44;3.30;;;2.50;;
64789;SDS011;51223;51.816;5.862;2023-01-28T11:29:22;3.65;;;2.67;;
64789;SDS011;51223;51.816;5.862;2023-01-28T11:31:49;7.05;;;3.17;;
64789;SDS011;51223;51.816;5.862;2023-01-28T11:34:15;3.42;;;2.65;;
64789;SDS011;51223;51.816;5.862;2023-01-28T11:36:48;3.00;;;2.17;;
64789;SDS011;51223;51.816;5.862;2023-01-28T11:39:22;4.57;;;2.35;;
64789;SDS011;51223;51.816;5.862;2023-01-28T11:41:50;0.68;;;0.68;;
64789;SDS011;51223;51.816;5.862;2023-01-28T12:02:45;2.70;;;2.10;;
64789;SDS011;51223;51.816;5.862;2023-01-28T12:13:24;2.88;;;2.08;;
64789;SDS011;51223;51.816;5.862;2023-01-28T12:21:09;1.77;;;1.50;;
64789;SDS011;51223;51.816;5.862;2023-01-28T12:26:32;0.65;;;0.65;;
64789;SDS011;51223;51.816;5.862;2023-01-28T12:34:28;0.88;;;0.80;;
64789;SDS011;51223;51.816;5.862;2023-01-28T12:37:06;5.07;;;3.33;;
64789;SDS011;51223;51.816;5.862;2023-01-28T12:42:23;1.48;;;1.30;;
64789;SDS011;51223;51.816;5.862;2023-01-28T12:44:53;2.08;;;1.38;;
64789;SDS011;51223;51.816;5.862;2023-01-28T12:47:25;1.35;;;1.17;;
64789;SDS011;51223;51.816;5.862;2023-01-28T12:49:54;2.10;;;1.90;;
64789;SDS011;51223;51.816;5.862;2023-01-28T12:52:23;1.75;;;1.30;;
64789;SDS011;51223;51.816;5.862;2023-01-28T12:54:54;5.30;;;2.00;;
64789;SDS011;51223;51.816;5.862;2023-01-28T12:57:23;2.17;;;1.65;;
64789;SDS011;51223;51.816;5.862;2023-01-28T12:59:51;2.63;;;2.38;;
64789;SDS011;51223;51.816;5.862;2023-01-28T13:02:22;5.75;;;2.72;;
64789;SDS011;51223;51.816;5.862;2023-01-28T13:04:58;2.22;;;1.90;;
64789;SDS011;51223;51.816;5.862;2023-01-28T13:07:29;2.67;;;1.77;;
64789;SDS011;51223;51.816;5.862;2023-01-28T13:09:59;4.43;;;3.17;;
64789;SDS011;51223;51.816;5.862;2023-01-28T13:12:28;1.02;;;0.93;;
64789;SDS011;51223;51.816;5.862;2023-01-28T13:14:55;3.47;;;2.22;;
64789;SDS011;51223;51.816;5.862;2023-01-28T13:17:27;2.60;;;1.73;;
64789;SDS011;51223;51.816;5.862;2023-01-28T13:19:53;2.15;;;1.77;;
64789;SDS011;51223;51.816;5.862;2023-01-28T13:24:53;2.20;;;1.87;;
64789;SDS011;51223;51.816;5.862;2023-01-28T13:27:26;1.98;;;1.73;;
64789;SDS011;51223;51.816;5.862;2023-01-28T13:30:03;2.50;;;2.30;;
64789;SDS011;51223;51.816;5.862;2023-01-28T13:32:31;3.15;;;2.08;;
64789;SDS011;51223;51.816;5.862;2023-01-28T13:34:58;2.88;;;2.22;;
64789;SDS011;51223;51.816;5.862;2023-01-28T13:39:50;3.85;;;2.45;;
64789;SDS011;51223;51.816;5.862;2023-01-28T13:42:24;2.30;;;1.63;;
64789;SDS011;51223;51.816;5.862;2023-01-28T13:44:50;4.55;;;2.33;;
64789;SDS011;51223;51.816;5.862;2023-01-28T13:47:23;1.52;;;1.40;;
64789;SDS011;51223;51.816;5.862;2023-01-28T13:49:53;1.88;;;1.70;;
64789;SDS011;51223;51.816;5.862;2023-01-28T13:52:24;3.92;;;2.15;;
64789;SDS011;51223;51.816;5.862;2023-01-28T13:54:52;3.65;;;2.45;;
64789;SDS011;51223;51.816;5.862;2023-01-28T13:57:26;2.95;;;2.35;;
64789;SDS011;51223;51.816;5.862;2023-01-28T14:00:07;2.85;;;2.53;;
64789;SDS011;51223;51.816;5.862;2023-01-28T14:05:05;2.03;;;1.83;;
64789;SDS011;51223;51.816;5.862;2023-01-28T14:10:11;1.52;;;1.40;;
64789;SDS011;51223;51.816;5.862;2023-01-28T14:15:31;3.03;;;2.40;;
64789;SDS011;51223;51.816;5.862;2023-01-28T14:18:00;4.25;;;2.15;;
64789;SDS011;51223;51.816;5.862;2023-01-28T14:20:33;3.38;;;2.03;;
64789;SDS011;51223;51.816;5.862;2023-01-28T14:23:04;3.00;;;1.90;;
64789;SDS011;51223;51.816;5.862;2023-01-28T14:25:40;1.73;;;1.27;;
64789;SDS011;51223;51.816;5.862;2023-01-28T14:28:09;2.08;;;1.60;;
64789;SDS011;51223;51.816;5.862;2023-01-28T14:33:08;1.60;;;1.20;;
64789;SDS011;51223;51.816;5.862;2023-01-28T14:35:36;2.00;;;1.73;;
64789;SDS011;51223;51.816;5.862;2023-01-28T14:38:06;3.00;;;2.17;;
64789;SDS011;51223;51.816;5.862;2023-01-28T14:40:32;2.65;;;1.88;;
64789;SDS011;51223;51.816;5.862;2023-01-28T14:43:05;3.22;;;2.45;;
64789;SDS011;51223;51.816;5.862;2023-01-28T14:50:44;2.45;;;1.55;;
64789;SDS011;51223;51.816;5.862;2023-01-28T14:58:15;3.78;;;2.60;;
64789;SDS011;51223;51.816;5.862;2023-01-28T15:00:51;5.45;;;2.67;;
64789;SDS011;51223;51.816;5.862;2023-01-28T15:03:17;3.00;;;2.50;;
64789;SDS011;51223;51.816;5.862;2023-01-28T15:05:43;7.03;;;2.55;;
64789;SDS011;51223;51.816;5.862;2023-01-28T15:08:18;2.05;;;1.85;;
64789;SDS011;51223;51.816;5.862;2023-01-28T15:10:43;7.13;;;2.65;;
64789;SDS011;51223;51.816;5.862;2023-01-28T15:13:31;1.95;;;1.75;;
64789;SDS011;51223;51.816;5.862;2023-01-28T15:15:55;3.25;;;2.47;;
64789;SDS011;51223;51.816;5.862;2023-01-28T15:18:25;2.40;;;1.83;;
64789;SDS011;51223;51.816;5.862;2023-01-28T15:20:53;3.83;;;2.90;;
64789;SDS011;51223;51.816;5.862;2023-01-28T15:23:54;1.40;;;1.30;;
64789;SDS011;51223;51.816;5.862;2023-01-28T15:26:14;2.88;;;2.28;;
64789;SDS011;51223;51.816;5.862;2023-01-28T15:28:41;1.15;;;1.08;;
64789;SDS011;51223;51.816;5.862;2023-01-28T15:31:14;2.47;;;1.55;;
64789;SDS011;51223;51.816;5.862;2023-01-28T15:33:41;9.55;;;2.15;;
64789;SDS011;51223;51.816;5.862;2023-01-28T15:36:08;4.05;;;2.35;;
64789;SDS011;51223;51.816;5.862;2023-01-28T15:38:34;2.67;;;2.08;;
64789;SDS011;51223;51.816;5.862;2023-01-28T15:41:00;2.50;;;1.98;;
64789;SDS011;51223;51.816;5.862;2023-01-28T15:45:52;3.42;;;2.30;;
64789;SDS011;51223;51.816;5.862;2023-01-28T15:48:20;3.35;;;2.65;;
64789;SDS011;51223;51.816;5.862;2023-01-28T15:50:46;5.75;;;3.67;;
64789;SDS011;51223;51.816;5.862;2023-01-28T15:53:12;4.90;;;3.05;;
64789;SDS011;51223;51.816;5.862;2023-01-28T15:55:44;5.90;;;3.05;;
64789;SDS011;51223;51.816;5.862;2023-01-28T15:58:29;3.15;;;2.28;;
64789;SDS011;51223;51.816;5.862;2023-01-28T16:03:33;5.78;;;2.85;;
64789;SDS011;51223;51.816;5.862;2023-01-28T16:06:19;6.20;;;4.25;;
64789;SDS011;51223;51.816;5.862;2023-01-28T16:11:20;9.23;;;4.63;;
64789;SDS011;51223;51.816;5.862;2023-01-28T16:13:46;12.85;;;5.63;;
64789;SDS011;51223;51.816;5.862;2023-01-28T16:16:11;9.25;;;4.13;;
64789;SDS011;51223;51.816;5.862;2023-01-28T16:18:39;9.00;;;4.30;;
64789;SDS011;51223;51.816;5.862;2023-01-28T16:21:06;13.25;;;5.30;;
64789;SDS011;51223;51.816;5.862;2023-01-28T16:23:32;12.48;;;6.22;;
64789;SDS011;51223;51.816;5.862;2023-01-28T16:25:59;10.50;;;5.78;;
64789;SDS011;51223;51.816;5.862;2023-01-28T16:28:25;6.80;;;4.25;;
64789;SDS011;51223;51.816;5.862;2023-01-28T16:30:51;8.73;;;4.90;;
64789;SDS011;51223;51.816;5.862;2023-01-28T16:33:17;9.20;;;4.53;;
64789;SDS011;51223;51.816;5.862;2023-01-28T16:35:43;7.68;;;4.60;;
64789;SDS011;51223;51.816;5.862;2023-01-28T16:38:08;7.18;;;4.15;;
64789;SDS011;51223;51.816;5.862;2023-01-28T16:40:34;6.30;;;4.13;;
64789;SDS011;51223;51.816;5.862;2023-01-28T16:43:02;6.85;;;4.25;;
64789;SDS011;51223;51.816;5.862;2023-01-28T16:45:28;14.68;;;8.38;;
64789;SDS011;51223;51.816;5.862;2023-01-28T16:47:53;10.10;;;6.55;;
64789;SDS011;51223;51.816;5.862;2023-01-28T16:50:19;8.35;;;4.68;;